Buoy 46770

sailwx.info

Track history (hours):
 
Tides and Currents Weather Stations Pressure Air Temp Water Temp Dewpoint Dewpoint Depression Visibility Wind Speed Wind Dir Waves Ship Positions

Drifting buoy 46770

Last reported at 2016-May-05 00:00 UTC. Time now 2016-May-05 00:54 UTC.
Position N 40°55' W 156°42'.

Barometer 1009.7 mb
Water temperature 8.9 ° C

Date/timePositionNaut miles runAvg speedWind from/ knotsBaromVisibWave heightAir tempDewpointWater temp
2016-May-05 00:00N 40°55' W 156°42'1 0.4 1009.7 8.9
2016-May-04 22:00N 40°56' W 156°43'1 0.8 1011.1 8.9
2016-May-04 21:00N 40°55' W 156°43'2 1.5 1011.8 8.9
2016-May-04 20:00N 40°55' W 156°45'2 2.2 1012.6 8.9
2016-May-04 19:00N 40°54' W 156°48'0 0.2 1013.3 8.9
2016-May-04 17:00N 40°53' W 156°47'1 1.1 1014.0 8.9
2016-May-04 16:00N 40°52' W 156°47'1 0.9 1014.0 8.9
2016-May-04 15:00N 40°51' W 156°48'0 0.1 1014.9 8.9
2016-May-04 14:00N 40°51' W 156°48'1 1.1 1016.1 8.9
2016-May-04 13:00N 40°50' W 156°48'2 2.4 1017.2 8.9
2016-May-04 12:00N 40°48' W 156°49'0 0.1 1017.7 8.9
2016-May-04 08:00N 40°48' W 156°49'1 0.3 1021.2 8.9
2016-May-04 06:00N 40°48' W 156°49'0 0.3 1022.4 9.0
2016-May-04 05:00N 40°47' W 156°49'1 1.0 1022.3 9.0
2016-May-04 04:00N 40°47' W 156°51'0 0.2 1021.9 9.0
2016-May-04 03:00N 40°47' W 156°50'1 0.6 1022.2 9.0
2016-May-04 02:00N 40°46' W 156°50'1 1.4 1022.8 9.0
2016-May-04 01:00N 40°46' W 156°52'0 0.0 1023.4 9.0
2016-May-04 00:00N 40°46' W 156°52'1 0.8 1023.9 9.0
2016-May-03 23:00N 40°46' W 156°53'3 0.5 1024.3 8.9
2016-May-03 17:00N 40°44' W 156°56'0 0.1 1025.4 8.8
2016-May-03 16:00N 40°44' W 156°56'1 0.6 1025.1 8.8
2016-May-03 14:00N 40°44' W 156°58'3 2.7 1024.7 8.8
2016-May-03 13:00N 40°44' W 157°02'0 0.0 1024.8 8.8
2016-May-03 08:00N 40°44' W 157°02'1 0.7 1026.8 8.7
2016-May-03 07:00N 40°45' W 157°02'1 0.9 1027.0 8.7
2016-May-03 06:00N 40°44' W 157°03'0 0.5 1027.0 8.7
2016-May-03 05:00N 40°44' W 157°04'1 1.1 1027.1 8.7
2016-May-03 04:00N 40°44' W 157°05'0 0.3 1027.1 8.7
2016-May-03 03:00N 40°44' W 157°06'0 0.5 1027.2 8.7
2016-May-03 02:00N 40°44' W 157°05'0 0.2 1027.4 8.8
2016-May-03 00:00N 40°45' W 157°06'1 1.0 1028.0 8.8
2016-May-02 23:00N 40°45' W 157°07'1 0.7 1028.5 8.8
2016-May-02 22:00N 40°45' W 157°08'2 0.5 1028.6 8.8
2016-May-02 18:00N 40°45' W 157°10'0 0.2 1028.9 8.7
2016-May-02 16:00N 40°46' W 157°11'1 0.4 1028.3 8.7
2016-May-02 14:00N 40°46' W 157°12'2 2.2 1028.2 8.8
2016-May-02 13:00N 40°47' W 157°14'0 0.1 1028.7 8.8
2016-May-02 07:00N 40°47' W 157°14'1 0.3 1029.1 8.8
2016-May-02 05:00N 40°47' W 157°15'0 0.0 1028.8 8.9
2016-May-02 04:00N 40°47' W 157°15'0 0.1 1028.4 8.9
2016-May-02 03:00N 40°47' W 157°15'0 0.2 1028.2 8.9
2016-May-02 01:00N 40°48' W 157°15'1 0.5 1028.0 8.9
2016-May-01 22:00N 40°49' W 157°15'2 1.0 1028.0 8.8
2016-May-01 20:00N 40°51' W 157°16'1 0.3 1027.8 8.7
2016-May-01 18:00N 40°51' W 157°17'1 0.7 1027.1 8.7
2016-May-01 17:00N 40°51' W 157°18'0 0.3 1026.6 8.6
2016-May-01 16:00N 40°52' W 157°18'1 1.2 1026.0 8.6
2016-May-01 15:00N 40°52' W 157°20'0 0.3 1025.8 8.6
2016-May-01 14:00N 40°52' W 157°20'0 0.1 1025.7 8.6
2016-May-01 13:00N 40°52' W 157°20'1 0.3 1025.3 8.6
2016-May-01 11:00N 40°53' W 157°21'0 0.0 1025.3 8.6
2016-May-01 09:00N 40°53' W 157°21'1 0.8 1025.1 8.6
2016-May-01 08:00N 40°53' W 157°20'0 0.0 1025.1 8.6
2016-May-01 07:00N 40°53' W 157°20'0 0.4 1024.8 8.6
2016-May-01 06:00N 40°54' W 157°20'1 0.9 1023.9 8.6
2016-May-01 05:00N 40°54' W 157°20'1 0.6 1023.2 8.7
2016-May-01 04:00N 40°55' W 157°21'1 0.7 1022.7 8.7
2016-May-01 03:00N 40°55' W 157°21'0 0.0 1022.1 8.7
2016-May-01 02:00N 40°55' W 157°21'1 0.8 1021.6 8.7
2016-May-01 01:00N 40°56' W 157°21'3 1.3 1021.4 8.7
2016-Apr-30 23:00N 40°58' W 157°24'0 0.0 1020.4 8.7
2016-Apr-30 22:00N 40°58' W 157°24'1 0.3 1019.9 8.7
2016-Apr-30 20:00N 40°58' W 157°25'1 0.7 1019.1 8.7
2016-Apr-30 19:00N 40°58' W 157°26'0 0.0 1018.5 8.6
2016-Apr-30 18:00N 40°58' W 157°26'0 0.4 1018.0 8.6
2016-Apr-30 17:00N 40°58' W 157°26'0 0.2 1016.9 8.6
2016-Apr-30 16:00N 40°58' W 157°26'0 0.0 1016.3 8.6
2016-Apr-30 15:00N 40°58' W 157°26'1 0.6 1015.9 8.6
2016-Apr-30 13:00N 40°59' W 157°28'1 0.2 1015.9 8.6
2016-Apr-30 09:00N 40°59' W 157°29'1 0.2 1015.3 8.6
2016-Apr-30 06:00N 40°60' W 157°29'1 1.4 1014.3 8.7
2016-Apr-30 05:00N 41°01' W 157°30'1 0.8 1013.5 8.7
2016-Apr-30 04:00N 41°00' W 157°31'2 1.0 1012.6 8.7
2016-Apr-30 02:00N 41°02' W 157°33'0 0.2 1011.0 8.7
2016-Apr-30 01:00N 41°02' W 157°33'2 0.8 1010.2 8.7
2016-Apr-29 23:00N 41°02' W 157°35'1 0.6 1008.6 8.7
2016-Apr-29 21:00N 41°01' W 157°36'1 0.6 1007.7 8.7
2016-Apr-29 19:00N 41°02' W 157°37'1 1.2 1007.0 8.6
2016-Apr-29 18:00N 41°03' W 157°38'0 0.0 1006.7 8.6
2016-Apr-29 17:00N 41°03' W 157°38'1 0.8 1006.3 8.6
2016-Apr-29 16:00N 41°04' W 157°38'0 0.0 1006.1 8.6
2016-Apr-29 15:00N 41°04' W 157°38'2 0.8 1005.5 8.6
2016-Apr-29 13:00N 41°04' W 157°40'2 2.3 1005.3 8.7
2016-Apr-29 12:00N 41°03' W 157°43'2 2.3 1004.9 8.7
2016-Apr-29 11:00N 41°04' W 157°40'3 1.0 1005.9 8.7
2016-Apr-29 08:00N 41°02' W 157°43'1 0.9 1006.9 8.7
2016-Apr-29 07:00N 41°01' W 157°44'1 0.8 1007.6 8.7
2016-Apr-29 06:00N 41°01' W 157°43'0 0.4 1008.3 8.7
2016-Apr-29 05:00N 41°01' W 157°44'1 0.8 1009.2 8.7
2016-Apr-29 04:00N 41°00' W 157°43'1 1.0 1010.7 8.7
2016-Apr-29 03:00N 40°59' W 157°43'0 0.3 1012.9 8.8
2016-Apr-29 02:00N 40°60' W 157°43'0 0.0 1013.3 8.8
2016-Apr-29 01:00N 40°60' W 157°43'0 0.2 1016.9 8.8
2016-Apr-28 23:00N 40°60' W 157°43'1 0.2 1018.7 8.8
2016-Apr-28 18:00N 40°59' W 157°43'0 0.3 1020.9 8.7
2016-Apr-28 17:00N 40°59' W 157°43'1 0.3 1021.0 8.7
2016-Apr-28 15:00N 40°60' W 157°43'1 0.8 1020.5 8.7
2016-Apr-28 14:00N 41°00' W 157°44'2 0.3 1021.1 8.7
2016-Apr-28 08:00N 40°60' W 157°47'1 0.2 1023.4 8.7
2016-Apr-28 04:00N 41°01' W 157°47'0 0.3 1021.1 8.8
2016-Apr-28 03:00N 41°01' W 157°47'0 0.5 1021.3 8.8
2016-Apr-28 02:00N 41°01' W 157°47'1 1.0 1020.8 8.8
2016-Apr-28 01:00N 41°02' W 157°49'0 0.1 1020.1 8.7
2016-Apr-28 00:00N 41°02' W 157°49'0 0.1 1020.6 8.7
2016-Apr-27 23:00N 41°02' W 157°49'3 0.9 1020.2 8.6
2016-Apr-27 20:00N 41°03' W 157°52'0 0.2 1019.1 8.5
2016-Apr-27 17:00N 41°03' W 157°52'0 0.0 1017.0 8.5
2016-Apr-27 16:00N 41°03' W 157°52'1 0.7 1016.2 8.5
2016-Apr-27 15:00N 41°04' W 157°52'1 1.1 1015.3 8.5
2016-Apr-27 14:00N 41°04' W 157°54'1 0.4 1014.6 8.6
2016-Apr-27 12:00N 41°05' W 157°54'1 0.9 1013.4 8.6
2016-Apr-27 11:00N 41°04' W 157°54'1 0.4 1012.8 8.6
2016-Apr-27 08:00N 41°05' W 157°55'0 0.3 1011.2 8.7
2016-Apr-27 07:00N 41°05' W 157°55'0 0.5 1010.7 8.7
2016-Apr-27 06:00N 41°05' W 157°55'0 0.4 1009.7 8.7
2016-Apr-27 05:00N 41°05' W 157°55'0 0.4 1009.1 8.7
2016-Apr-27 04:00N 41°05' W 157°55'0 0.1 1008.5 8.7
2016-Apr-27 03:00N 41°05' W 157°55'1 0.5 1008.1 8.7
2016-Apr-27 01:00N 41°05' W 157°57'0 0.4 1008.4 8.7
2016-Apr-27 00:00N 41°04' W 157°57'0 0.4 1009.5 8.6
2016-Apr-26 23:00N 41°05' W 157°57'1 1.0 1010.9 8.6
2016-Apr-26 22:00N 41°04' W 157°59'2 1.0 1012.7 8.6
2016-Apr-26 20:00N 41°03' W 158°01'1 0.3 1015.0 8.6
2016-Apr-26 17:00N 41°02' W 158°01'1 0.4 1016.4 8.5
2016-Apr-26 15:00N 41°02' W 158°01'1 0.6 1016.6 8.5
2016-Apr-26 14:00N 41°02' W 158°02'1 1.0 1017.1 8.5
2016-Apr-26 13:00N 41°02' W 158°00'1 1.1 1017.2 8.5
2016-Apr-26 12:00N 41°03' W 158°01'0 0.0 1017.4 8.5
2016-Apr-26 09:00N 41°03' W 158°01'1 0.8 1017.6 8.6
2016-Apr-26 08:00N 41°03' W 157°60'2 1.6 1017.4 8.6
2016-Apr-26 07:00N 41°04' W 158°01'0 0.5 1017.0 8.6
2016-Apr-26 06:00N 41°04' W 158°01'1 1.1 1016.3 8.7
2016-Apr-26 05:00N 41°03' W 158°02'3 1.3 1015.7 8.7
2016-Apr-26 03:00N 41°05' W 158°05'2 1.6 1014.5 8.9
2016-Apr-26 02:00N 41°05' W 158°07'1 0.6 1014.2 8.9
2016-Apr-26 00:00N 41°04' W 158°09'0 0.0 1013.7 8.9
2016-Apr-25 23:00N 41°04' W 158°09'0 0.0 1013.7 8.9
2016-Apr-25 22:00N 41°04' W 158°09'1 0.5 1013.8 8.9
2016-Apr-25 19:00N 41°03' W 158°10'0 0.4 1013.0 8.9
2016-Apr-25 18:00N 41°03' W 158°11'0 0.1 1012.7 8.9
2016-Apr-25 17:00N 41°03' W 158°11'1 0.7 1012.2 8.9
2016-Apr-25 16:00N 41°04' W 158°11'0 0.1 1011.7 8.9
2016-Apr-25 14:00N 41°04' W 158°11'5 0.9 1011.7 8.9
2016-Apr-25 09:00N 41°05' W 158°16'2 0.6 1012.6 8.9
2016-Apr-25 06:00N 41°05' W 158°19'1 1.2 1012.3 9.0
2016-Apr-25 05:00N 41°04' W 158°20'1 0.7 1011.9 8.9
2016-Apr-25 03:00N 41°03' W 158°21'1 0.6 1011.4 9.0
2016-Apr-25 02:00N 41°03' W 158°22'0 0.1 1011.1 8.9
2016-Apr-25 00:00N 41°03' W 158°22'   1011.0 8.9
Track history (hours):
 
Tides and Currents Weather Stations Pressure Air Temp Water Temp Dewpoint Dewpoint Depression Visibility Wind Speed Wind Dir Waves Ship Positions

Drifting buoy 46770

Last reported at 2016-May-05 00:00 UTC. Time now 2016-May-05 00:54 UTC.
Position N 40°55' W 156°42'.

Barometer 1009.7 mb
Water temperature 8.9 ° C

Date/timePositionNaut miles runAvg speedWind from/ knotsBaromVisibWave heightAir tempDewpointWater temp
2016-May-05 00:00N 40°55' W 156°42'1 0.4 1009.7 8.9
2016-May-04 22:00N 40°56' W 156°43'1 0.8 1011.1 8.9
2016-May-04 21:00N 40°55' W 156°43'2 1.5 1011.8 8.9
2016-May-04 20:00N 40°55' W 156°45'2 2.2 1012.6 8.9
2016-May-04 19:00N 40°54' W 156°48'0 0.2 1013.3 8.9
2016-May-04 17:00N 40°53' W 156°47'1 1.1 1014.0 8.9
2016-May-04 16:00N 40°52' W 156°47'1 0.9 1014.0 8.9
2016-May-04 15:00N 40°51' W 156°48'0 0.1 1014.9 8.9
2016-May-04 14:00N 40°51' W 156°48'1 1.1 1016.1 8.9
2016-May-04 13:00N 40°50' W 156°48'2 2.4 1017.2 8.9
2016-May-04 12:00N 40°48' W 156°49'0 0.1 1017.7 8.9
2016-May-04 08:00N 40°48' W 156°49'1 0.3 1021.2 8.9
2016-May-04 06:00N 40°48' W 156°49'0 0.3 1022.4 9.0
2016-May-04 05:00N 40°47' W 156°49'1 1.0 1022.3 9.0
2016-May-04 04:00N 40°47' W 156°51'0 0.2 1021.9 9.0
2016-May-04 03:00N 40°47' W 156°50'1 0.6 1022.2 9.0
2016-May-04 02:00N 40°46' W 156°50'1 1.4 1022.8 9.0
2016-May-04 01:00N 40°46' W 156°52'0 0.0 1023.4 9.0
2016-May-04 00:00N 40°46' W 156°52'1 0.8 1023.9 9.0
2016-May-03 23:00N 40°46' W 156°53'3 0.5 1024.3 8.9
2016-May-03 17:00N 40°44' W 156°56'0 0.1 1025.4 8.8
2016-May-03 16:00N 40°44' W 156°56'1 0.6 1025.1 8.8
2016-May-03 14:00N 40°44' W 156°58'3 2.7 1024.7 8.8
2016-May-03 13:00N 40°44' W 157°02'0 0.0 1024.8 8.8
2016-May-03 08:00N 40°44' W 157°02'1 0.7 1026.8 8.7
2016-May-03 07:00N 40°45' W 157°02'1 0.9 1027.0 8.7
2016-May-03 06:00N 40°44' W 157°03'0 0.5 1027.0 8.7
2016-May-03 05:00N 40°44' W 157°04'1 1.1 1027.1 8.7
2016-May-03 04:00N 40°44' W 157°05'0 0.3 1027.1 8.7
2016-May-03 03:00N 40°44' W 157°06'0 0.5 1027.2 8.7
2016-May-03 02:00N 40°44' W 157°05'0 0.2 1027.4 8.8
2016-May-03 00:00N 40°45' W 157°06'1 1.0 1028.0 8.8
2016-May-02 23:00N 40°45' W 157°07'1 0.7 1028.5 8.8
2016-May-02 22:00N 40°45' W 157°08'2 0.5 1028.6 8.8
2016-May-02 18:00N 40°45' W 157°10'0 0.2 1028.9 8.7
2016-May-02 16:00N 40°46' W 157°11'1 0.4 1028.3 8.7
2016-May-02 14:00N 40°46' W 157°12'2 2.2 1028.2 8.8
2016-May-02 13:00N 40°47' W 157°14'0 0.1 1028.7 8.8
2016-May-02 07:00N 40°47' W 157°14'1 0.3 1029.1 8.8
2016-May-02 05:00N 40°47' W 157°15'0 0.0 1028.8 8.9
2016-May-02 04:00N 40°47' W 157°15'0 0.1 1028.4 8.9
2016-May-02 03:00N 40°47' W 157°15'0 0.2 1028.2 8.9
2016-May-02 01:00N 40°48' W 157°15'1 0.5 1028.0 8.9
2016-May-01 22:00N 40°49' W 157°15'2 1.0 1028.0 8.8
2016-May-01 20:00N 40°51' W 157°16'1 0.3 1027.8 8.7
2016-May-01 18:00N 40°51' W 157°17'1 0.7 1027.1 8.7
2016-May-01 17:00N 40°51' W 157°18'0 0.3 1026.6 8.6
2016-May-01 16:00N 40°52' W 157°18'1 1.2 1026.0 8.6
2016-May-01 15:00N 40°52' W 157°20'0 0.3 1025.8 8.6
2016-May-01 14:00N 40°52' W 157°20'0 0.1 1025.7 8.6
2016-May-01 13:00N 40°52' W 157°20'1 0.3 1025.3 8.6
2016-May-01 11:00N 40°53' W 157°21'0 0.0 1025.3 8.6
2016-May-01 09:00N 40°53' W 157°21'1 0.8 1025.1 8.6
2016-May-01 08:00N 40°53' W 157°20'0 0.0 1025.1 8.6
2016-May-01 07:00N 40°53' W 157°20'0 0.4 1024.8 8.6
2016-May-01 06:00N 40°54' W 157°20'1 0.9 1023.9 8.6
2016-May-01 05:00N 40°54' W 157°20'1 0.6 1023.2 8.7
2016-May-01 04:00N 40°55' W 157°21'1 0.7 1022.7 8.7
2016-May-01 03:00N 40°55' W 157°21'0 0.0 1022.1 8.7
2016-May-01 02:00N 40°55' W 157°21'1 0.8 1021.6 8.7
2016-May-01 01:00N 40°56' W 157°21'3 1.3 1021.4 8.7
2016-Apr-30 23:00N 40°58' W 157°24'0 0.0 1020.4 8.7
2016-Apr-30 22:00N 40°58' W 157°24'1 0.3 1019.9 8.7
2016-Apr-30 20:00N 40°58' W 157°25'1 0.7 1019.1 8.7
2016-Apr-30 19:00N 40°58' W 157°26'0 0.0 1018.5 8.6
2016-Apr-30 18:00N 40°58' W 157°26'0 0.4 1018.0 8.6
2016-Apr-30 17:00N 40°58' W 157°26'0 0.2 1016.9 8.6
2016-Apr-30 16:00N 40°58' W 157°26'0 0.0 1016.3 8.6
2016-Apr-30 15:00N 40°58' W 157°26'1 0.6 1015.9 8.6
2016-Apr-30 13:00N 40°59' W 157°28'1 0.2 1015.9 8.6
2016-Apr-30 09:00N 40°59' W 157°29'1 0.2 1015.3 8.6
2016-Apr-30 06:00N 40°60' W 157°29'1 1.4 1014.3 8.7
2016-Apr-30 05:00N 41°01' W 157°30'1 0.8 1013.5 8.7
2016-Apr-30 04:00N 41°00' W 157°31'2 1.0 1012.6 8.7
2016-Apr-30 02:00N 41°02' W 157°33'0 0.2 1011.0 8.7
2016-Apr-30 01:00N 41°02' W 157°33'2 0.8 1010.2 8.7
2016-Apr-29 23:00N 41°02' W 157°35'1 0.6 1008.6 8.7
2016-Apr-29 21:00N 41°01' W 157°36'1 0.6 1007.7 8.7
2016-Apr-29 19:00N 41°02' W 157°37'1 1.2 1007.0 8.6
2016-Apr-29 18:00N 41°03' W 157°38'0 0.0 1006.7 8.6
2016-Apr-29 17:00N 41°03' W 157°38'1 0.8 1006.3 8.6
2016-Apr-29 16:00N 41°04' W 157°38'0 0.0 1006.1 8.6
2016-Apr-29 15:00N 41°04' W 157°38'2 0.8 1005.5 8.6
2016-Apr-29 13:00N 41°04' W 157°40'2 2.3 1005.3 8.7
2016-Apr-29 12:00N 41°03' W 157°43'2 2.3 1004.9 8.7
2016-Apr-29 11:00N 41°04' W 157°40'3 1.0 1005.9 8.7
2016-Apr-29 08:00N 41°02' W 157°43'1 0.9 1006.9 8.7
2016-Apr-29 07:00N 41°01' W 157°44'1 0.8 1007.6 8.7
2016-Apr-29 06:00N 41°01' W 157°43'0 0.4 1008.3 8.7
2016-Apr-29 05:00N 41°01' W 157°44'1 0.8 1009.2 8.7
2016-Apr-29 04:00N 41°00' W 157°43'1 1.0 1010.7 8.7
2016-Apr-29 03:00N 40°59' W 157°43'0 0.3 1012.9 8.8
2016-Apr-29 02:00N 40°60' W 157°43'0 0.0 1013.3 8.8
2016-Apr-29 01:00N 40°60' W 157°43'0 0.2 1016.9 8.8
2016-Apr-28 23:00N 40°60' W 157°43'1 0.2 1018.7 8.8
2016-Apr-28 18:00N 40°59' W 157°43'0 0.3 1020.9 8.7
2016-Apr-28 17:00N 40°59' W 157°43'1 0.3 1021.0 8.7
2016-Apr-28 15:00N 40°60' W 157°43'1 0.8 1020.5 8.7
2016-Apr-28 14:00N 41°00' W 157°44'2 0.3 1021.1 8.7
2016-Apr-28 08:00N 40°60' W 157°47'1 0.2 1023.4 8.7
2016-Apr-28 04:00N 41°01' W 157°47'0 0.3 1021.1 8.8
2016-Apr-28 03:00N 41°01' W 157°47'0 0.5 1021.3 8.8
2016-Apr-28 02:00N 41°01' W 157°47'1 1.0 1020.8 8.8
2016-Apr-28 01:00N 41°02' W 157°49'0 0.1 1020.1 8.7
2016-Apr-28 00:00N 41°02' W 157°49'0 0.1 1020.6 8.7
2016-Apr-27 23:00N 41°02' W 157°49'3 0.9 1020.2 8.6
2016-Apr-27 20:00N 41°03' W 157°52'0 0.2 1019.1 8.5
2016-Apr-27 17:00N 41°03' W 157°52'0 0.0 1017.0 8.5
2016-Apr-27 16:00N 41°03' W 157°52'1 0.7 1016.2 8.5
2016-Apr-27 15:00N 41°04' W 157°52'1 1.1 1015.3 8.5
2016-Apr-27 14:00N 41°04' W 157°54'1 0.4 1014.6 8.6
2016-Apr-27 12:00N 41°05' W 157°54'1 0.9 1013.4 8.6
2016-Apr-27 11:00N 41°04' W 157°54'1 0.4 1012.8 8.6
2016-Apr-27 08:00N 41°05' W 157°55'0 0.3 1011.2 8.7
2016-Apr-27 07:00N 41°05' W 157°55'0 0.5 1010.7 8.7
2016-Apr-27 06:00N 41°05' W 157°55'0 0.4 1009.7 8.7
2016-Apr-27 05:00N 41°05' W 157°55'0 0.4 1009.1 8.7
2016-Apr-27 04:00N 41°05' W 157°55'0 0.1 1008.5 8.7
2016-Apr-27 03:00N 41°05' W 157°55'1 0.5 1008.1 8.7
2016-Apr-27 01:00N 41°05' W 157°57'0 0.4 1008.4 8.7
2016-Apr-27 00:00N 41°04' W 157°57'0 0.4 1009.5 8.6
2016-Apr-26 23:00N 41°05' W 157°57'1 1.0 1010.9 8.6
2016-Apr-26 22:00N 41°04' W 157°59'2 1.0 1012.7 8.6
2016-Apr-26 20:00N 41°03' W 158°01'1 0.3 1015.0 8.6
2016-Apr-26 17:00N 41°02' W 158°01'1 0.4 1016.4 8.5
2016-Apr-26 15:00N 41°02' W 158°01'1 0.6 1016.6 8.5
2016-Apr-26 14:00N 41°02' W 158°02'1 1.0 1017.1 8.5
2016-Apr-26 13:00N 41°02' W 158°00'1 1.1 1017.2 8.5
2016-Apr-26 12:00N 41°03' W 158°01'0 0.0 1017.4 8.5
2016-Apr-26 09:00N 41°03' W 158°01'1 0.8 1017.6 8.6
2016-Apr-26 08:00N 41°03' W 157°60'2 1.6 1017.4 8.6
2016-Apr-26 07:00N 41°04' W 158°01'0 0.5 1017.0 8.6
2016-Apr-26 06:00N 41°04' W 158°01'1 1.1 1016.3 8.7
2016-Apr-26 05:00N 41°03' W 158°02'3 1.3 1015.7 8.7
2016-Apr-26 03:00N 41°05' W 158°05'2 1.6 1014.5 8.9
2016-Apr-26 02:00N 41°05' W 158°07'1 0.6 1014.2 8.9
2016-Apr-26 00:00N 41°04' W 158°09'0 0.0 1013.7 8.9
2016-Apr-25 23:00N 41°04' W 158°09'0 0.0 1013.7 8.9
2016-Apr-25 22:00N 41°04' W 158°09'1 0.5 1013.8 8.9
2016-Apr-25 19:00N 41°03' W 158°10'0 0.4 1013.0 8.9
2016-Apr-25 18:00N 41°03' W 158°11'0 0.1 1012.7 8.9
2016-Apr-25 17:00N 41°03' W 158°11'1 0.7 1012.2 8.9
2016-Apr-25 16:00N 41°04' W 158°11'0 0.1 1011.7 8.9
2016-Apr-25 14:00N 41°04' W 158°11'5 0.9 1011.7 8.9
2016-Apr-25 09:00N 41°05' W 158°16'2 0.6 1012.6 8.9
2016-Apr-25 06:00N 41°05' W 158°19'1 1.2 1012.3 9.0
2016-Apr-25 05:00N 41°04' W 158°20'1 0.7 1011.9 8.9
2016-Apr-25 03:00N 41°03' W 158°21'1 0.6 1011.4 9.0
2016-Apr-25 02:00N 41°03' W 158°22'0 0.1 1011.1 8.9
2016-Apr-25 00:00N 41°03' W 158°22'   1011.0 8.9

Dump ship's entire track history